Terminal Aerodrome Forecast
Issued by NWS Charleston, WV

Current Version | Previous Version | Graphics & Text | Print | Product List | Glossary On
Versions: 1 2 3 4 5 6 7 8 9 10 11 12 13 14 15 16 17 18 19 20 21 22 23 24 25 26 27 28 29
000
FTUS41 KRLX 260259 AAA
TAFEKN
TAF AMD
KEKN 260259Z 2603/2624 VRB03KT P6SM SCT070
     FM260600 20006KT 5SM BR SCT050
      TEMPO 2606/2609 2SM BR FEW001
     FM261400 22004KT 5SM -SHRA BKN035
     FM262000 21007KT P6SM VCTS BKN030CB=

USA.gov is the U.S. government's official web portal to all federal, state and local government web resources and services.